sensor_id;sensor_type;location;lat;lon;timestamp;P1;durP1;ratioP1;P2;durP2;ratioP2
28353;SDS011;15603;50.878;8.036;2023-03-26T00:01:26;18.45;;;2.20;;
28353;SDS011;15603;50.878;8.036;2023-03-26T00:03:55;21.75;;;2.40;;
28353;SDS011;15603;50.878;8.036;2023-03-26T00:06:25;28.95;;;3.50;;
28353;SDS011;15603;50.878;8.036;2023-03-26T00:08:55;30.00;;;2.35;;
28353;SDS011;15603;50.878;8.036;2023-03-26T00:11:24;18.55;;;3.10;;
28353;SDS011;15603;50.878;8.036;2023-03-26T00:13:53;15.32;;;2.13;;
28353;SDS011;15603;50.878;8.036;2023-03-26T00:16:25;21.70;;;2.00;;
28353;SDS011;15603;50.878;8.036;2023-03-26T00:18:54;21.40;;;2.63;;
28353;SDS011;15603;50.878;8.036;2023-03-26T00:21:24;19.27;;;4.28;;
28353;SDS011;15603;50.878;8.036;2023-03-26T00:23:54;19.90;;;2.90;;
28353;SDS011;15603;50.878;8.036;2023-03-26T00:26:26;30.10;;;4.18;;
28353;SDS011;15603;50.878;8.036;2023-03-26T00:28:57;28.70;;;4.18;;
28353;SDS011;15603;50.878;8.036;2023-03-26T00:31:26;18.95;;;2.50;;
28353;SDS011;15603;50.878;8.036;2023-03-26T00:33:53;28.90;;;4.22;;
28353;SDS011;15603;50.878;8.036;2023-03-26T00:36:22;20.52;;;3.03;;
28353;SDS011;15603;50.878;8.036;2023-03-26T00:38:53;20.95;;;2.63;;
28353;SDS011;15603;50.878;8.036;2023-03-26T00:41:22;18.45;;;2.78;;
28353;SDS011;15603;50.878;8.036;2023-03-26T00:43:57;22.25;;;2.92;;
28353;SDS011;15603;50.878;8.036;2023-03-26T00:46:26;24.05;;;2.58;;
28353;SDS011;15603;50.878;8.036;2023-03-26T00:48:55;21.65;;;2.92;;
28353;SDS011;15603;50.878;8.036;2023-03-26T00:51:26;25.05;;;2.83;;
28353;SDS011;15603;50.878;8.036;2023-03-26T00:53:54;15.32;;;2.47;;
28353;SDS011;15603;50.878;8.036;2023-03-26T00:56:22;27.90;;;3.60;;
28353;SDS011;15603;50.878;8.036;2023-03-26T00:58:49;23.67;;;2.85;;
28353;SDS011;15603;50.878;8.036;2023-03-26T01:01:26;23.92;;;4.97;;
28353;SDS011;15603;50.878;8.036;2023-03-26T01:03:56;23.63;;;3.28;;
28353;SDS011;15603;50.878;8.036;2023-03-26T01:06:30;19.65;;;2.17;;
28353;SDS011;15603;50.878;8.036;2023-03-26T01:09:05;22.15;;;3.05;;
28353;SDS011;15603;50.878;8.036;2023-03-26T01:11:39;39.30;;;4.53;;
28353;SDS011;15603;50.878;8.036;2023-03-26T01:14:09;21.80;;;3.40;;
28353;SDS011;15603;50.878;8.036;2023-03-26T01:19:08;27.38;;;3.65;;
28353;SDS011;15603;50.878;8.036;2023-03-26T01:21:42;23.45;;;3.08;;
28353;SDS011;15603;50.878;8.036;2023-03-26T01:24:09;21.42;;;3.35;;
28353;SDS011;15603;50.878;8.036;2023-03-26T01:26:45;23.95;;;2.47;;
28353;SDS011;15603;50.878;8.036;2023-03-26T01:29:33;25.77;;;3.47;;
28353;SDS011;15603;50.878;8.036;2023-03-26T01:40:28;25.02;;;2.42;;
28353;SDS011;15603;50.878;8.036;2023-03-26T01:46:10;16.85;;;2.40;;
28353;SDS011;15603;50.878;8.036;2023-03-26T01:48:40;28.15;;;2.65;;
28353;SDS011;15603;50.878;8.036;2023-03-26T01:51:10;15.60;;;1.98;;
28353;SDS011;15603;50.878;8.036;2023-03-26T01:53:47;26.15;;;3.13;;
28353;SDS011;15603;50.878;8.036;2023-03-26T01:56:17;26.73;;;4.05;;
28353;SDS011;15603;50.878;8.036;2023-03-26T02:02:28;16.73;;;2.55;;
28353;SDS011;15603;50.878;8.036;2023-03-26T02:05:14;30.80;;;3.20;;
28353;SDS011;15603;50.878;8.036;2023-03-26T02:07:52;28.02;;;2.58;;
28353;SDS011;15603;50.878;8.036;2023-03-26T02:10:28;26.17;;;3.55;;
28353;SDS011;15603;50.878;8.036;2023-03-26T02:12:57;25.30;;;3.35;;
28353;SDS011;15603;50.878;8.036;2023-03-26T02:15:25;30.63;;;5.63;;
28353;SDS011;15603;50.878;8.036;2023-03-26T02:17:52;34.53;;;2.72;;
28353;SDS011;15603;50.878;8.036;2023-03-26T02:20:22;28.83;;;2.35;;
28353;SDS011;15603;50.878;8.036;2023-03-26T02:22:49;25.85;;;2.65;;
28353;SDS011;15603;50.878;8.036;2023-03-26T02:25:18;22.08;;;2.33;;
28353;SDS011;15603;50.878;8.036;2023-03-26T02:27:49;17.73;;;2.72;;
28353;SDS011;15603;50.878;8.036;2023-03-26T02:30:18;27.58;;;3.72;;
28353;SDS011;15603;50.878;8.036;2023-03-26T02:32:57;21.48;;;2.78;;
28353;SDS011;15603;50.878;8.036;2023-03-26T02:35:31;25.10;;;3.90;;
28353;SDS011;15603;50.878;8.036;2023-03-26T02:38:00;19.48;;;2.13;;
28353;SDS011;15603;50.878;8.036;2023-03-26T02:40:27;19.35;;;2.40;;
28353;SDS011;15603;50.878;8.036;2023-03-26T02:42:55;20.38;;;2.95;;
28353;SDS011;15603;50.878;8.036;2023-03-26T02:45:23;21.27;;;2.85;;
28353;SDS011;15603;50.878;8.036;2023-03-26T02:50:59;31.23;;;2.40;;
28353;SDS011;15603;50.878;8.036;2023-03-26T02:53:53;22.45;;;3.03;;
28353;SDS011;15603;50.878;8.036;2023-03-26T02:56:35;19.88;;;2.50;;
28353;SDS011;15603;50.878;8.036;2023-03-26T02:59:14;18.60;;;2.70;;
28353;SDS011;15603;50.878;8.036;2023-03-26T03:01:44;25.60;;;2.95;;
28353;SDS011;15603;50.878;8.036;2023-03-26T03:04:14;34.45;;;2.80;;
28353;SDS011;15603;50.878;8.036;2023-03-26T03:06:43;23.33;;;2.53;;
28353;SDS011;15603;50.878;8.036;2023-03-26T03:09:11;24.65;;;2.65;;
28353;SDS011;15603;50.878;8.036;2023-03-26T03:12:01;17.85;;;2.90;;
28353;SDS011;15603;50.878;8.036;2023-03-26T03:14:29;14.32;;;2.55;;
28353;SDS011;15603;50.878;8.036;2023-03-26T03:16:57;17.45;;;2.25;;
28353;SDS011;15603;50.878;8.036;2023-03-26T03:19:24;20.63;;;2.83;;
28353;SDS011;15603;50.878;8.036;2023-03-26T03:21:51;25.08;;;2.72;;
28353;SDS011;15603;50.878;8.036;2023-03-26T03:24:18;19.00;;;3.20;;
28353;SDS011;15603;50.878;8.036;2023-03-26T03:26:47;23.60;;;2.38;;
28353;SDS011;15603;50.878;8.036;2023-03-26T03:29:31;22.38;;;2.50;;
28353;SDS011;15603;50.878;8.036;2023-03-26T03:32:19;19.25;;;1.90;;
28353;SDS011;15603;50.878;8.036;2023-03-26T03:34:51;27.65;;;2.75;;
28353;SDS011;15603;50.878;8.036;2023-03-26T03:37:18;21.75;;;2.53;;
28353;SDS011;15603;50.878;8.036;2023-03-26T03:39:52;17.00;;;2.58;;
28353;SDS011;15603;50.878;8.036;2023-03-26T03:42:25;31.27;;;3.03;;
28353;SDS011;15603;50.878;8.036;2023-03-26T03:44:55;26.23;;;3.67;;
28353;SDS011;15603;50.878;8.036;2023-03-26T03:47:43;15.30;;;2.47;;
28353;SDS011;15603;50.878;8.036;2023-03-26T03:50:11;11.05;;;2.03;;
28353;SDS011;15603;50.878;8.036;2023-03-26T03:52:48;23.50;;;2.42;;
28353;SDS011;15603;50.878;8.036;2023-03-26T03:55:16;22.73;;;2.67;;
28353;SDS011;15603;50.878;8.036;2023-03-26T03:57:53;20.25;;;2.28;;
28353;SDS011;15603;50.878;8.036;2023-03-26T04:00:22;21.15;;;2.75;;
28353;SDS011;15603;50.878;8.036;2023-03-26T04:03:08;29.75;;;2.78;;
28353;SDS011;15603;50.878;8.036;2023-03-26T04:05:35;27.58;;;3.00;;
28353;SDS011;15603;50.878;8.036;2023-03-26T04:08:03;17.83;;;2.25;;
28353;SDS011;15603;50.878;8.036;2023-03-26T04:10:50;23.73;;;2.22;;
28353;SDS011;15603;50.878;8.036;2023-03-26T04:13:36;24.85;;;2.85;;
28353;SDS011;15603;50.878;8.036;2023-03-26T04:16:14;16.00;;;2.20;;
28353;SDS011;15603;50.878;8.036;2023-03-26T04:18:43;20.88;;;2.05;;
28353;SDS011;15603;50.878;8.036;2023-03-26T04:21:13;18.85;;;2.33;;
28353;SDS011;15603;50.878;8.036;2023-03-26T04:23:43;24.23;;;3.15;;
28353;SDS011;15603;50.878;8.036;2023-03-26T04:26:34;20.75;;;2.28;;
28353;SDS011;15603;50.878;8.036;2023-03-26T04:29:05;26.73;;;3.67;;
28353;SDS011;15603;50.878;8.036;2023-03-26T04:31:38;19.50;;;2.50;;
28353;SDS011;15603;50.878;8.036;2023-03-26T04:34:08;20.33;;;2.25;;
28353;SDS011;15603;50.878;8.036;2023-03-26T04:36:54;14.93;;;2.90;;
28353;SDS011;15603;50.878;8.036;2023-03-26T04:39:26;22.45;;;2.65;;
28353;SDS011;15603;50.878;8.036;2023-03-26T04:42:14;24.48;;;4.18;;
28353;SDS011;15603;50.878;8.036;2023-03-26T04:44:57;20.13;;;2.78;;
28353;SDS011;15603;50.878;8.036;2023-03-26T04:47:25;25.38;;;2.38;;
28353;SDS011;15603;50.878;8.036;2023-03-26T04:49:53;12.75;;;2.20;;
28353;SDS011;15603;50.878;8.036;2023-03-26T04:52:20;16.90;;;2.88;;
28353;SDS011;15603;50.878;8.036;2023-03-26T04:55:06;20.80;;;2.42;;
28353;SDS011;15603;50.878;8.036;2023-03-26T05:00:37;13.38;;;2.45;;
28353;SDS011;15603;50.878;8.036;2023-03-26T05:03:04;8.15;;;1.80;;
28353;SDS011;15603;50.878;8.036;2023-03-26T05:05:32;15.50;;;1.80;;
28353;SDS011;15603;50.878;8.036;2023-03-26T05:07:59;19.83;;;3.65;;
28353;SDS011;15603;50.878;8.036;2023-03-26T05:10:26;17.17;;;2.75;;
28353;SDS011;15603;50.878;8.036;2023-03-26T05:13:08;18.02;;;2.20;;
28353;SDS011;15603;50.878;8.036;2023-03-26T05:15:39;16.30;;;2.25;;
28353;SDS011;15603;50.878;8.036;2023-03-26T05:18:18;24.40;;;2.65;;
28353;SDS011;15603;50.878;8.036;2023-03-26T05:20:49;19.83;;;3.50;;
28353;SDS011;15603;50.878;8.036;2023-03-26T05:23:17;23.38;;;2.50;;
28353;SDS011;15603;50.878;8.036;2023-03-26T05:25:51;23.63;;;3.50;;
28353;SDS011;15603;50.878;8.036;2023-03-26T05:28:21;17.95;;;2.70;;
28353;SDS011;15603;50.878;8.036;2023-03-26T05:30:54;16.88;;;1.73;;
28353;SDS011;15603;50.878;8.036;2023-03-26T05:33:24;29.98;;;3.35;;
28353;SDS011;15603;50.878;8.036;2023-03-26T05:36:00;16.95;;;2.92;;
28353;SDS011;15603;50.878;8.036;2023-03-26T05:41:02;19.90;;;2.70;;
28353;SDS011;15603;50.878;8.036;2023-03-26T05:43:31;19.63;;;2.35;;
28353;SDS011;15603;50.878;8.036;2023-03-26T05:46:06;16.98;;;2.15;;
28353;SDS011;15603;50.878;8.036;2023-03-26T05:48:34;15.27;;;1.80;;
28353;SDS011;15603;50.878;8.036;2023-03-26T05:51:01;11.70;;;1.70;;
28353;SDS011;15603;50.878;8.036;2023-03-26T05:53:30;26.83;;;2.75;;
28353;SDS011;15603;50.878;8.036;2023-03-26T05:56:16;14.55;;;2.63;;
28353;SDS011;15603;50.878;8.036;2023-03-26T05:59:06;13.55;;;2.17;;
28353;SDS011;15603;50.878;8.036;2023-03-26T06:01:45;15.45;;;2.28;;
28353;SDS011;15603;50.878;8.036;2023-03-26T06:04:31;16.63;;;2.30;;
28353;SDS011;15603;50.878;8.036;2023-03-26T06:07:18;12.93;;;2.05;;
28353;SDS011;15603;50.878;8.036;2023-03-26T06:10:12;12.50;;;1.83;;
28353;SDS011;15603;50.878;8.036;2023-03-26T06:12:44;12.93;;;2.28;;
28353;SDS011;15603;50.878;8.036;2023-03-26T06:15:12;15.48;;;2.20;;
28353;SDS011;15603;50.878;8.036;2023-03-26T06:17:45;17.63;;;2.22;;
28353;SDS011;15603;50.878;8.036;2023-03-26T06:20:33;15.32;;;1.90;;
28353;SDS011;15603;50.878;8.036;2023-03-26T06:23:05;17.70;;;2.03;;
28353;SDS011;15603;50.878;8.036;2023-03-26T06:25:43;16.50;;;3.65;;
28353;SDS011;15603;50.878;8.036;2023-03-26T06:28:22;15.57;;;2.10;;
28353;SDS011;15603;50.878;8.036;2023-03-26T06:31:03;16.60;;;2.23;;
28353;SDS011;15603;50.878;8.036;2023-03-26T06:33:35;11.93;;;1.92;;
28353;SDS011;15603;50.878;8.036;2023-03-26T06:36:02;13.38;;;1.83;;
28353;SDS011;15603;50.878;8.036;2023-03-26T06:38:30;15.43;;;1.75;;
28353;SDS011;15603;50.878;8.036;2023-03-26T06:41:03;13.48;;;1.95;;
28353;SDS011;15603;50.878;8.036;2023-03-26T06:43:50;14.52;;;2.63;;
28353;SDS011;15603;50.878;8.036;2023-03-26T06:46:36;11.50;;;1.63;;
28353;SDS011;15603;50.878;8.036;2023-03-26T06:49:38;18.77;;;2.72;;
28353;SDS011;15603;50.878;8.036;2023-03-26T06:52:30;16.27;;;3.05;;
28353;SDS011;15603;50.878;8.036;2023-03-26T06:57:53;16.58;;;1.85;;
28353;SDS011;15603;50.878;8.036;2023-03-26T07:00:41;16.05;;;1.95;;
28353;SDS011;15603;50.878;8.036;2023-03-26T07:03:27;19.23;;;1.92;;
28353;SDS011;15603;50.878;8.036;2023-03-26T07:06:12;11.65;;;2.10;;
28353;SDS011;15603;50.878;8.036;2023-03-26T07:08:58;19.70;;;2.97;;
28353;SDS011;15603;50.878;8.036;2023-03-26T07:11:57;17.15;;;2.00;;
28353;SDS011;15603;50.878;8.036;2023-03-26T07:14:43;6.82;;;1.23;;
28353;SDS011;15603;50.878;8.036;2023-03-26T07:17:30;18.05;;;2.40;;
28353;SDS011;15603;50.878;8.036;2023-03-26T07:20:05;21.25;;;2.28;;
28353;SDS011;15603;50.878;8.036;2023-03-26T07:22:34;18.20;;;1.88;;
28353;SDS011;15603;50.878;8.036;2023-03-26T07:25:32;11.77;;;2.00;;
28353;SDS011;15603;50.878;8.036;2023-03-26T07:28:22;16.45;;;1.77;;
28353;SDS011;15603;50.878;8.036;2023-03-26T07:31:49;10.30;;;2.13;;
28353;SDS011;15603;50.878;8.036;2023-03-26T07:37:29;12.77;;;2.00;;
28353;SDS011;15603;50.878;8.036;2023-03-26T07:46:57;14.27;;;1.70;;
28353;SDS011;15603;50.878;8.036;2023-03-26T07:49:53;13.30;;;2.65;;
28353;SDS011;15603;50.878;8.036;2023-03-26T07:52:41;11.05;;;1.75;;
28353;SDS011;15603;50.878;8.036;2023-03-26T07:55:28;16.45;;;3.90;;
28353;SDS011;15603;50.878;8.036;2023-03-26T07:58:18;10.63;;;2.55;;
28353;SDS011;15603;50.878;8.036;2023-03-26T08:01:52;19.83;;;3.78;;
28353;SDS011;15603;50.878;8.036;2023-03-26T08:16:08;9.15;;;2.08;;
28353;SDS011;15603;50.878;8.036;2023-03-26T08:21:33;12.35;;;2.97;;
28353;SDS011;15603;50.878;8.036;2023-03-26T08:30:08;13.38;;;2.30;;
28353;SDS011;15603;50.878;8.036;2023-03-26T08:32:40;17.60;;;2.95;;
28353;SDS011;15603;50.878;8.036;2023-03-26T08:35:10;16.35;;;2.38;;
28353;SDS011;15603;50.878;8.036;2023-03-26T08:37:39;12.30;;;2.08;;
28353;SDS011;15603;50.878;8.036;2023-03-26T08:40:07;9.43;;;2.60;;
28353;SDS011;15603;50.878;8.036;2023-03-26T08:51:50;13.23;;;2.63;;
28353;SDS011;15603;50.878;8.036;2023-03-26T09:02:36;13.60;;;2.10;;
28353;SDS011;15603;50.878;8.036;2023-03-26T09:13:55;10.90;;;1.60;;
28353;SDS011;15603;50.878;8.036;2023-03-26T09:23:16;9.57;;;1.55;;
28353;SDS011;15603;50.878;8.036;2023-03-26T09:31:32;7.13;;;1.60;;
28353;SDS011;15603;50.878;8.036;2023-03-26T09:36:54;5.63;;;1.38;;
28353;SDS011;15603;50.878;8.036;2023-03-26T10:45:58;2.08;;;0.60;;
28353;SDS011;15603;50.878;8.036;2023-03-26T10:54:07;3.38;;;0.70;;
28353;SDS011;15603;50.878;8.036;2023-03-26T10:56:48;1.40;;;0.63;;
28353;SDS011;15603;50.878;8.036;2023-03-26T10:59:17;3.00;;;0.60;;
28353;SDS011;15603;50.878;8.036;2023-03-26T11:04:48;1.30;;;0.45;;
28353;SDS011;15603;50.878;8.036;2023-03-26T11:13:02;2.65;;;0.73;;
28353;SDS011;15603;50.878;8.036;2023-03-26T11:15:46;4.47;;;0.60;;
28353;SDS011;15603;50.878;8.036;2023-03-26T11:18:29;3.85;;;1.00;;
28353;SDS011;15603;50.878;8.036;2023-03-26T11:21:09;2.10;;;0.50;;
28353;SDS011;15603;50.878;8.036;2023-03-26T11:26:35;2.03;;;0.63;;
28353;SDS011;15603;50.878;8.036;2023-03-26T11:32:14;2.70;;;0.90;;
28353;SDS011;15603;50.878;8.036;2023-03-26T11:34:54;3.03;;;0.95;;
28353;SDS011;15603;50.878;8.036;2023-03-26T11:37:31;2.45;;;0.57;;
28353;SDS011;15603;50.878;8.036;2023-03-26T11:40:08;2.05;;;0.52;;
28353;SDS011;15603;50.878;8.036;2023-03-26T11:42:40;8.77;;;1.50;;
28353;SDS011;15603;50.878;8.036;2023-03-26T11:45:16;4.20;;;0.85;;
28353;SDS011;15603;50.878;8.036;2023-03-26T11:47:49;2.92;;;0.80;;
28353;SDS011;15603;50.878;8.036;2023-03-26T11:50:21;1.73;;;0.63;;
28353;SDS011;15603;50.878;8.036;2023-03-26T11:55:22;1.42;;;0.80;;
28353;SDS011;15603;50.878;8.036;2023-03-26T11:57:52;2.10;;;0.80;;
28353;SDS011;15603;50.878;8.036;2023-03-26T12:00:23;3.25;;;0.73;;
28353;SDS011;15603;50.878;8.036;2023-03-26T12:02:57;2.78;;;0.80;;
28353;SDS011;15603;50.878;8.036;2023-03-26T12:05:29;2.90;;;1.30;;
28353;SDS011;15603;50.878;8.036;2023-03-26T12:08:01;2.83;;;1.17;;
28353;SDS011;15603;50.878;8.036;2023-03-26T12:10:43;6.15;;;1.08;;
28353;SDS011;15603;50.878;8.036;2023-03-26T12:16:00;2.72;;;1.13;;
28353;SDS011;15603;50.878;8.036;2023-03-26T12:18:33;6.35;;;1.88;;
28353;SDS011;15603;50.878;8.036;2023-03-26T12:21:02;5.93;;;0.82;;
28353;SDS011;15603;50.878;8.036;2023-03-26T12:26:11;0.43;;;0.38;;
28353;SDS011;15603;50.878;8.036;2023-03-26T12:28:44;0.88;;;0.60;;
28353;SDS011;15603;50.878;8.036;2023-03-26T12:31:14;1.42;;;0.60;;
28353;SDS011;15603;50.878;8.036;2023-03-26T12:36:56;4.30;;;1.10;;
28353;SDS011;15603;50.878;8.036;2023-03-26T12:45:13;3.83;;;0.73;;
28353;SDS011;15603;50.878;8.036;2023-03-26T12:47:41;2.90;;;0.80;;
28353;SDS011;15603;50.878;8.036;2023-03-26T12:50:33;2.50;;;0.70;;
28353;SDS011;15603;50.878;8.036;2023-03-26T12:53:14;1.73;;;0.60;;
28353;SDS011;15603;50.878;8.036;2023-03-26T12:58:54;5.63;;;1.55;;
28353;SDS011;15603;50.878;8.036;2023-03-26T13:01:46;1.80;;;0.75;;
28353;SDS011;15603;50.878;8.036;2023-03-26T13:06:53;2.55;;;0.45;;
28353;SDS011;15603;50.878;8.036;2023-03-26T13:18:03;2.53;;;0.98;;
28353;SDS011;15603;50.878;8.036;2023-03-26T13:20:51;2.17;;;0.52;;
28353;SDS011;15603;50.878;8.036;2023-03-26T13:26:41;0.80;;;0.20;;
28353;SDS011;15603;50.878;8.036;2023-03-26T13:41:24;4.88;;;0.32;;
28353;SDS011;15603;50.878;8.036;2023-03-26T13:49:02;0.57;;;0.30;;
28353;SDS011;15603;50.878;8.036;2023-03-26T13:57:11;0.55;;;0.30;;
28353;SDS011;15603;50.878;8.036;2023-03-26T14:06:13;1.85;;;0.17;;
28353;SDS011;15603;50.878;8.036;2023-03-26T14:08:59;0.17;;;0.10;;
28353;SDS011;15603;50.878;8.036;2023-03-26T14:11:44;0.70;;;0.20;;
28353;SDS011;15603;50.878;8.036;2023-03-26T14:14:22;3.47;;;1.30;;
28353;SDS011;15603;50.878;8.036;2023-03-26T14:17:02;2.47;;;0.77;;
28353;SDS011;15603;50.878;8.036;2023-03-26T14:45:46;1.95;;;0.52;;
28353;SDS011;15603;50.878;8.036;2023-03-26T14:53:41;1.40;;;0.30;;
28353;SDS011;15603;50.878;8.036;2023-03-26T15:07:24;1.88;;;0.82;;
28353;SDS011;15603;50.878;8.036;2023-03-26T15:16:24;0.75;;;0.52;;
28353;SDS011;15603;50.878;8.036;2023-03-26T15:25:39;1.85;;;0.40;;
28353;SDS011;15603;50.878;8.036;2023-03-26T15:31:56;1.95;;;0.50;;
28353;SDS011;15603;50.878;8.036;2023-03-26T15:40:51;0.57;;;0.43;;
28353;SDS011;15603;50.878;8.036;2023-03-26T15:46:38;5.25;;;0.80;;
28353;SDS011;15603;50.878;8.036;2023-03-26T15:54:53;1.92;;;1.10;;
28353;SDS011;15603;50.878;8.036;2023-03-26T15:57:43;10.05;;;3.20;;
28353;SDS011;15603;50.878;8.036;2023-03-26T16:17:03;5.05;;;1.80;;
28353;SDS011;15603;50.878;8.036;2023-03-26T16:19:45;3.78;;;1.40;;
28353;SDS011;15603;50.878;8.036;2023-03-26T16:25:33;2.30;;;0.82;;
28353;SDS011;15603;50.878;8.036;2023-03-26T16:28:24;1.27;;;0.80;;
28353;SDS011;15603;50.878;8.036;2023-03-26T16:31:03;1.55;;;0.80;;
28353;SDS011;15603;50.878;8.036;2023-03-26T16:33:56;2.00;;;0.90;;
28353;SDS011;15603;50.878;8.036;2023-03-26T16:36:31;1.58;;;0.52;;
28353;SDS011;15603;50.878;8.036;2023-03-26T16:42:21;1.90;;;0.60;;
28353;SDS011;15603;50.878;8.036;2023-03-26T16:55:27;6.05;;;0.50;;
28353;SDS011;15603;50.878;8.036;2023-03-26T16:58:15;0.90;;;0.43;;
28353;SDS011;15603;50.878;8.036;2023-03-26T17:04:04;1.15;;;0.52;;
28353;SDS011;15603;50.878;8.036;2023-03-26T17:06:52;1.83;;;0.50;;
28353;SDS011;15603;50.878;8.036;2023-03-26T17:15:47;1.17;;;0.40;;
28353;SDS011;15603;50.878;8.036;2023-03-26T17:18:34;1.95;;;0.50;;
28353;SDS011;15603;50.878;8.036;2023-03-26T17:28:05;3.08;;;1.25;;
28353;SDS011;15603;50.878;8.036;2023-03-26T17:31:02;3.78;;;1.20;;
28353;SDS011;15603;50.878;8.036;2023-03-26T17:33:43;3.92;;;1.55;;
28353;SDS011;15603;50.878;8.036;2023-03-26T17:36:27;9.57;;;1.35;;
28353;SDS011;15603;50.878;8.036;2023-03-26T17:42:18;0.90;;;0.70;;
28353;SDS011;15603;50.878;8.036;2023-03-26T17:48:38;1.63;;;0.70;;
28353;SDS011;15603;50.878;8.036;2023-03-26T17:51:28;4.40;;;1.33;;
28353;SDS011;15603;50.878;8.036;2023-03-26T17:54:17;4.13;;;1.70;;
28353;SDS011;15603;50.878;8.036;2023-03-26T17:57:19;2.83;;;1.50;;
28353;SDS011;15603;50.878;8.036;2023-03-26T18:00:02;4.55;;;1.50;;
28353;SDS011;15603;50.878;8.036;2023-03-26T18:02:54;2.58;;;0.80;;
28353;SDS011;15603;50.878;8.036;2023-03-26T18:05:29;1.75;;;0.70;;
28353;SDS011;15603;50.878;8.036;2023-03-26T18:14:32;2.00;;;0.60;;
28353;SDS011;15603;50.878;8.036;2023-03-26T18:17:22;4.20;;;0.77;;
28353;SDS011;15603;50.878;8.036;2023-03-26T18:23:25;3.70;;;0.82;;
28353;SDS011;15603;50.878;8.036;2023-03-26T18:26:23;2.90;;;1.30;;
28353;SDS011;15603;50.878;8.036;2023-03-26T18:29:34;1.20;;;0.60;;
28353;SDS011;15603;50.878;8.036;2023-03-26T18:32:17;1.13;;;0.50;;
28353;SDS011;15603;50.878;8.036;2023-03-26T18:38:02;1.02;;;0.40;;
28353;SDS011;15603;50.878;8.036;2023-03-26T18:41:12;4.70;;;0.77;;
28353;SDS011;15603;50.878;8.036;2023-03-26T18:44:14;1.92;;;0.95;;
28353;SDS011;15603;50.878;8.036;2023-03-26T18:46:50;1.73;;;0.90;;
28353;SDS011;15603;50.878;8.036;2023-03-26T18:49:43;0.90;;;0.60;;
28353;SDS011;15603;50.878;8.036;2023-03-26T18:52:33;2.72;;;0.50;;
28353;SDS011;15603;50.878;8.036;2023-03-26T18:55:13;0.73;;;0.40;;
28353;SDS011;15603;50.878;8.036;2023-03-26T18:57:52;0.68;;;0.50;;
28353;SDS011;15603;50.878;8.036;2023-03-26T19:00:43;2.40;;;0.52;;
28353;SDS011;15603;50.878;8.036;2023-03-26T19:03:42;0.50;;;0.50;;
28353;SDS011;15603;50.878;8.036;2023-03-26T19:06:10;1.13;;;0.50;;
28353;SDS011;15603;50.878;8.036;2023-03-26T19:08:40;1.35;;;0.80;;
28353;SDS011;15603;50.878;8.036;2023-03-26T19:11:10;1.42;;;0.70;;
28353;SDS011;15603;50.878;8.036;2023-03-26T19:13:41;1.55;;;0.95;;
28353;SDS011;15603;50.878;8.036;2023-03-26T19:16:18;2.17;;;1.05;;
28353;SDS011;15603;50.878;8.036;2023-03-26T19:18:49;4.45;;;2.15;;
28353;SDS011;15603;50.878;8.036;2023-03-26T19:21:18;8.32;;;1.63;;
28353;SDS011;15603;50.878;8.036;2023-03-26T19:23:48;7.35;;;1.60;;
28353;SDS011;15603;50.878;8.036;2023-03-26T19:26:17;6.72;;;2.05;;
28353;SDS011;15603;50.878;8.036;2023-03-26T19:28:46;3.13;;;1.70;;
28353;SDS011;15603;50.878;8.036;2023-03-26T19:36:27;5.40;;;1.75;;
28353;SDS011;15603;50.878;8.036;2023-03-26T19:41:48;3.80;;;1.80;;
28353;SDS011;15603;50.878;8.036;2023-03-26T19:44:23;8.20;;;1.88;;
28353;SDS011;15603;50.878;8.036;2023-03-26T19:46:57;8.60;;;2.00;;
28353;SDS011;15603;50.878;8.036;2023-03-26T19:49:46;6.70;;;1.57;;
28353;SDS011;15603;50.878;8.036;2023-03-26T19:57:36;7.32;;;1.35;;
28353;SDS011;15603;50.878;8.036;2023-03-26T20:00:04;6.05;;;1.67;;
28353;SDS011;15603;50.878;8.036;2023-03-26T20:02:39;6.90;;;2.00;;
28353;SDS011;15603;50.878;8.036;2023-03-26T20:05:14;6.53;;;1.45;;
28353;SDS011;15603;50.878;8.036;2023-03-26T20:07:46;5.85;;;2.03;;
28353;SDS011;15603;50.878;8.036;2023-03-26T20:10:15;4.80;;;1.38;;
28353;SDS011;15603;50.878;8.036;2023-03-26T20:12:43;5.45;;;1.17;;
28353;SDS011;15603;50.878;8.036;2023-03-26T20:15:23;1.70;;;1.13;;
28353;SDS011;15603;50.878;8.036;2023-03-26T20:17:53;4.82;;;1.75;;
28353;SDS011;15603;50.878;8.036;2023-03-26T20:20:21;9.65;;;2.72;;
28353;SDS011;15603;50.878;8.036;2023-03-26T20:22:53;6.68;;;2.70;;
28353;SDS011;15603;50.878;8.036;2023-03-26T20:25:21;9.45;;;2.33;;
28353;SDS011;15603;50.878;8.036;2023-03-26T20:27:56;9.38;;;2.33;;
28353;SDS011;15603;50.878;8.036;2023-03-26T20:30:24;2.92;;;2.03;;
28353;SDS011;15603;50.878;8.036;2023-03-26T20:32:55;13.95;;;2.60;;
28353;SDS011;15603;50.878;8.036;2023-03-26T20:35:39;8.60;;;2.35;;
28353;SDS011;15603;50.878;8.036;2023-03-26T20:38:06;20.45;;;2.97;;
28353;SDS011;15603;50.878;8.036;2023-03-26T20:40:35;6.25;;;2.20;;
28353;SDS011;15603;50.878;8.036;2023-03-26T20:43:05;13.63;;;2.75;;
28353;SDS011;15603;50.878;8.036;2023-03-26T20:45:37;7.55;;;2.03;;
28353;SDS011;15603;50.878;8.036;2023-03-26T20:48:05;11.05;;;2.08;;
28353;SDS011;15603;50.878;8.036;2023-03-26T20:50:34;14.57;;;2.00;;
28353;SDS011;15603;50.878;8.036;2023-03-26T20:53:04;14.57;;;2.40;;
28353;SDS011;15603;50.878;8.036;2023-03-26T20:55:32;12.88;;;2.58;;
28353;SDS011;15603;50.878;8.036;2023-03-26T20:57:59;24.10;;;2.38;;
28353;SDS011;15603;50.878;8.036;2023-03-26T21:00:26;11.35;;;1.85;;
28353;SDS011;15603;50.878;8.036;2023-03-26T21:02:54;14.38;;;1.73;;
28353;SDS011;15603;50.878;8.036;2023-03-26T21:05:23;14.73;;;2.60;;
28353;SDS011;15603;50.878;8.036;2023-03-26T21:07:53;15.25;;;2.05;;
28353;SDS011;15603;50.878;8.036;2023-03-26T21:10:23;16.17;;;2.25;;
28353;SDS011;15603;50.878;8.036;2023-03-26T21:15:22;16.00;;;2.05;;
28353;SDS011;15603;50.878;8.036;2023-03-26T21:17:50;17.50;;;2.75;;
28353;SDS011;15603;50.878;8.036;2023-03-26T21:20:18;21.33;;;2.55;;
28353;SDS011;15603;50.878;8.036;2023-03-26T21:23:29;22.85;;;2.13;;
28353;SDS011;15603;50.878;8.036;2023-03-26T21:31:12;26.60;;;2.55;;
28353;SDS011;15603;50.878;8.036;2023-03-26T21:33:44;23.80;;;3.08;;
28353;SDS011;15603;50.878;8.036;2023-03-26T21:36:14;11.57;;;1.35;;
28353;SDS011;15603;50.878;8.036;2023-03-26T21:38:43;17.98;;;1.83;;
28353;SDS011;15603;50.878;8.036;2023-03-26T21:41:17;15.55;;;2.13;;
28353;SDS011;15603;50.878;8.036;2023-03-26T21:43:52;18.42;;;2.90;;
28353;SDS011;15603;50.878;8.036;2023-03-26T21:46:19;24.63;;;1.73;;
28353;SDS011;15603;50.878;8.036;2023-03-26T21:48:47;17.95;;;2.17;;
28353;SDS011;15603;50.878;8.036;2023-03-26T21:51:15;23.70;;;2.00;;
28353;SDS011;15603;50.878;8.036;2023-03-26T21:53:43;15.15;;;2.00;;
28353;SDS011;15603;50.878;8.036;2023-03-26T21:56:20;21.73;;;2.35;;
28353;SDS011;15603;50.878;8.036;2023-03-26T21:59:06;21.85;;;2.08;;
28353;SDS011;15603;50.878;8.036;2023-03-26T22:01:46;20.40;;;2.15;;
28353;SDS011;15603;50.878;8.036;2023-03-26T22:04:34;12.00;;;2.03;;
28353;SDS011;15603;50.878;8.036;2023-03-26T22:10:13;14.38;;;1.98;;
28353;SDS011;15603;50.878;8.036;2023-03-26T22:12:41;20.10;;;2.63;;
28353;SDS011;15603;50.878;8.036;2023-03-26T22:15:08;15.93;;;1.83;;
28353;SDS011;15603;50.878;8.036;2023-03-26T22:17:39;15.00;;;2.03;;
28353;SDS011;15603;50.878;8.036;2023-03-26T22:20:08;12.98;;;1.92;;
28353;SDS011;15603;50.878;8.036;2023-03-26T22:22:39;26.63;;;2.35;;
28353;SDS011;15603;50.878;8.036;2023-03-26T22:25:15;12.25;;;1.55;;
28353;SDS011;15603;50.878;8.036;2023-03-26T22:27:43;19.02;;;1.92;;
28353;SDS011;15603;50.878;8.036;2023-03-26T22:30:11;13.32;;;1.65;;
28353;SDS011;15603;50.878;8.036;2023-03-26T22:32:39;13.10;;;1.42;;